sensor_id;sensor_type;location;lat;lon;timestamp;P1;durP1;ratioP1;P2;durP2;ratioP2
45792;SDS011;31495;42.740;22.908;2023-04-16T00:00:53;4.07;;;2.08;;
45792;SDS011;31495;42.740;22.908;2023-04-16T00:01:52;6.68;;;2.88;;
45792;SDS011;31495;42.740;22.908;2023-04-16T00:02:51;5.22;;;1.67;;
45792;SDS011;31495;42.740;22.908;2023-04-16T00:03:51;4.72;;;1.45;;
45792;SDS011;31495;42.740;22.908;2023-04-16T00:04:50;6.07;;;2.20;;
45792;SDS011;31495;42.740;22.908;2023-04-16T00:05:49;5.68;;;2.17;;
45792;SDS011;31495;42.740;22.908;2023-04-16T00:06:49;4.43;;;1.58;;
45792;SDS011;31495;42.740;22.908;2023-04-16T00:07:49;4.55;;;1.60;;
45792;SDS011;31495;42.740;22.908;2023-04-16T00:08:49;4.63;;;1.67;;
45792;SDS011;31495;42.740;22.908;2023-04-16T00:09:49;4.10;;;1.15;;
45792;SDS011;31495;42.740;22.908;2023-04-16T00:10:50;4.93;;;1.45;;
45792;SDS011;31495;42.740;22.908;2023-04-16T00:11:50;5.80;;;1.15;;
45792;SDS011;31495;42.740;22.908;2023-04-16T00:12:50;3.72;;;1.35;;
45792;SDS011;31495;42.740;22.908;2023-04-16T00:13:49;3.15;;;1.70;;
45792;SDS011;31495;42.740;22.908;2023-04-16T00:14:48;4.88;;;2.03;;
45792;SDS011;31495;42.740;22.908;2023-04-16T00:15:48;6.10;;;1.63;;
45792;SDS011;31495;42.740;22.908;2023-04-16T00:16:47;4.57;;;1.85;;
45792;SDS011;31495;42.740;22.908;2023-04-16T00:17:47;4.32;;;1.52;;
45792;SDS011;31495;42.740;22.908;2023-04-16T00:18:46;4.07;;;1.23;;
45792;SDS011;31495;42.740;22.908;2023-04-16T00:19:46;7.28;;;2.03;;
45792;SDS011;31495;42.740;22.908;2023-04-16T00:20:46;7.25;;;2.08;;
45792;SDS011;31495;42.740;22.908;2023-04-16T00:21:46;10.70;;;2.67;;
45792;SDS011;31495;42.740;22.908;2023-04-16T00:22:46;7.90;;;3.97;;
45792;SDS011;31495;42.740;22.908;2023-04-16T00:23:45;10.23;;;3.78;;
45792;SDS011;31495;42.740;22.908;2023-04-16T00:24:45;7.68;;;3.33;;
45792;SDS011;31495;42.740;22.908;2023-04-16T00:25:44;6.78;;;2.97;;
45792;SDS011;31495;42.740;22.908;2023-04-16T00:26:43;14.68;;;5.05;;
45792;SDS011;31495;42.740;22.908;2023-04-16T00:27:44;11.23;;;4.18;;
45792;SDS011;31495;42.740;22.908;2023-04-16T00:28:44;16.45;;;6.15;;
45792;SDS011;31495;42.740;22.908;2023-04-16T00:29:43;7.95;;;4.25;;
45792;SDS011;31495;42.740;22.908;2023-04-16T00:30:42;10.02;;;3.70;;
45792;SDS011;31495;42.740;22.908;2023-04-16T00:31:42;10.00;;;3.40;;
45792;SDS011;31495;42.740;22.908;2023-04-16T00:32:41;7.28;;;2.35;;
45792;SDS011;31495;42.740;22.908;2023-04-16T00:33:41;8.35;;;2.88;;
45792;SDS011;31495;42.740;22.908;2023-04-16T00:34:40;7.18;;;3.70;;
45792;SDS011;31495;42.740;22.908;2023-04-16T00:35:39;10.20;;;4.50;;
45792;SDS011;31495;42.740;22.908;2023-04-16T00:36:39;14.50;;;7.50;;
45792;SDS011;31495;42.740;22.908;2023-04-16T00:37:38;16.73;;;8.63;;
45792;SDS011;31495;42.740;22.908;2023-04-16T00:38:38;17.58;;;8.10;;
45792;SDS011;31495;42.740;22.908;2023-04-16T00:39:37;18.48;;;7.97;;
45792;SDS011;31495;42.740;22.908;2023-04-16T00:40:37;14.77;;;7.68;;
45792;SDS011;31495;42.740;22.908;2023-04-16T00:41:36;16.83;;;8.88;;
45792;SDS011;31495;42.740;22.908;2023-04-16T00:42:36;18.58;;;8.70;;
45792;SDS011;31495;42.740;22.908;2023-04-16T00:43:36;24.10;;;11.20;;
45792;SDS011;31495;42.740;22.908;2023-04-16T00:44:36;25.95;;;9.80;;
45792;SDS011;31495;42.740;22.908;2023-04-16T00:45:35;24.77;;;9.68;;
45792;SDS011;31495;42.740;22.908;2023-04-16T00:46:35;23.35;;;9.23;;
45792;SDS011;31495;42.740;22.908;2023-04-16T00:47:35;24.40;;;9.88;;
45792;SDS011;31495;42.740;22.908;2023-04-16T00:48:36;16.17;;;7.53;;
45792;SDS011;31495;42.740;22.908;2023-04-16T00:49:37;10.10;;;4.07;;
45792;SDS011;31495;42.740;22.908;2023-04-16T00:50:37;12.07;;;4.07;;
45792;SDS011;31495;42.740;22.908;2023-04-16T00:51:37;10.30;;;3.67;;
45792;SDS011;31495;42.740;22.908;2023-04-16T00:52:37;14.00;;;4.13;;
45792;SDS011;31495;42.740;22.908;2023-04-16T00:53:37;12.25;;;4.10;;
45792;SDS011;31495;42.740;22.908;2023-04-16T00:54:37;7.78;;;3.40;;
45792;SDS011;31495;42.740;22.908;2023-04-16T00:55:37;3.72;;;1.90;;
45792;SDS011;31495;42.740;22.908;2023-04-16T00:56:38;11.85;;;3.08;;
45792;SDS011;31495;42.740;22.908;2023-04-16T00:57:38;10.73;;;3.20;;
45792;SDS011;31495;42.740;22.908;2023-04-16T00:58:38;8.73;;;3.00;;
45792;SDS011;31495;42.740;22.908;2023-04-16T00:59:38;9.07;;;3.53;;
45792;SDS011;31495;42.740;22.908;2023-04-16T01:00:39;9.25;;;3.38;;
45792;SDS011;31495;42.740;22.908;2023-04-16T01:01:39;14.35;;;4.20;;
45792;SDS011;31495;42.740;22.908;2023-04-16T01:02:39;20.13;;;5.60;;
45792;SDS011;31495;42.740;22.908;2023-04-16T01:03:39;12.48;;;4.28;;
45792;SDS011;31495;42.740;22.908;2023-04-16T01:04:42;19.80;;;5.88;;
45792;SDS011;31495;42.740;22.908;2023-04-16T01:05:41;11.70;;;5.32;;
45792;SDS011;31495;42.740;22.908;2023-04-16T01:06:41;14.82;;;4.93;;
45792;SDS011;31495;42.740;22.908;2023-04-16T01:07:40;20.33;;;4.00;;
45792;SDS011;31495;42.740;22.908;2023-04-16T01:08:40;19.35;;;5.78;;
45792;SDS011;31495;42.740;22.908;2023-04-16T01:09:39;9.77;;;3.30;;
45792;SDS011;31495;42.740;22.908;2023-04-16T01:10:39;10.60;;;3.65;;
45792;SDS011;31495;42.740;22.908;2023-04-16T01:11:38;11.50;;;3.22;;
45792;SDS011;31495;42.740;22.908;2023-04-16T01:12:38;8.20;;;2.53;;
45792;SDS011;31495;42.740;22.908;2023-04-16T01:13:37;6.95;;;2.10;;
45792;SDS011;31495;42.740;22.908;2023-04-16T01:14:37;10.60;;;2.08;;
45792;SDS011;31495;42.740;22.908;2023-04-16T01:15:37;8.07;;;1.77;;
45792;SDS011;31495;42.740;22.908;2023-04-16T01:16:36;7.47;;;1.90;;
45792;SDS011;31495;42.740;22.908;2023-04-16T01:17:36;4.88;;;1.70;;
45792;SDS011;31495;42.740;22.908;2023-04-16T01:18:35;6.75;;;2.17;;
45792;SDS011;31495;42.740;22.908;2023-04-16T01:19:36;9.95;;;2.40;;
45792;SDS011;31495;42.740;22.908;2023-04-16T01:20:36;9.77;;;2.42;;
45792;SDS011;31495;42.740;22.908;2023-04-16T01:21:36;8.38;;;2.67;;
45792;SDS011;31495;42.740;22.908;2023-04-16T01:22:35;9.75;;;3.63;;
45792;SDS011;31495;42.740;22.908;2023-04-16T01:23:34;13.35;;;4.20;;
45792;SDS011;31495;42.740;22.908;2023-04-16T01:24:34;14.32;;;5.85;;
45792;SDS011;31495;42.740;22.908;2023-04-16T01:25:34;13.98;;;4.90;;
45792;SDS011;31495;42.740;22.908;2023-04-16T01:26:34;15.57;;;3.65;;
45792;SDS011;31495;42.740;22.908;2023-04-16T01:27:34;15.13;;;4.13;;
45792;SDS011;31495;42.740;22.908;2023-04-16T01:28:35;11.25;;;3.17;;
45792;SDS011;31495;42.740;22.908;2023-04-16T01:29:34;11.27;;;2.55;;
45792;SDS011;31495;42.740;22.908;2023-04-16T01:30:34;10.07;;;3.75;;
45792;SDS011;31495;42.740;22.908;2023-04-16T01:31:33;18.00;;;3.03;;
45792;SDS011;31495;42.740;22.908;2023-04-16T01:32:33;11.25;;;2.40;;
45792;SDS011;31495;42.740;22.908;2023-04-16T01:33:33;3.80;;;1.60;;
45792;SDS011;31495;42.740;22.908;2023-04-16T01:34:32;5.53;;;1.52;;
45792;SDS011;31495;42.740;22.908;2023-04-16T01:35:32;11.05;;;1.70;;
45792;SDS011;31495;42.740;22.908;2023-04-16T01:36:32;9.00;;;1.67;;
45792;SDS011;31495;42.740;22.908;2023-04-16T01:37:31;4.57;;;1.70;;
45792;SDS011;31495;42.740;22.908;2023-04-16T01:38:31;5.38;;;2.00;;
45792;SDS011;31495;42.740;22.908;2023-04-16T01:39:30;5.72;;;2.08;;
45792;SDS011;31495;42.740;22.908;2023-04-16T01:40:30;7.85;;;1.70;;
45792;SDS011;31495;42.740;22.908;2023-04-16T01:41:30;5.97;;;1.90;;
45792;SDS011;31495;42.740;22.908;2023-04-16T01:42:29;11.07;;;2.60;;
45792;SDS011;31495;42.740;22.908;2023-04-16T01:43:29;8.82;;;1.95;;
45792;SDS011;31495;42.740;22.908;2023-04-16T01:44:29;5.45;;;1.50;;
45792;SDS011;31495;42.740;22.908;2023-04-16T01:45:32;8.65;;;1.83;;
45792;SDS011;31495;42.740;22.908;2023-04-16T01:46:32;10.60;;;2.05;;
45792;SDS011;31495;42.740;22.908;2023-04-16T01:47:34;5.28;;;2.10;;
45792;SDS011;31495;42.740;22.908;2023-04-16T01:48:33;6.97;;;1.70;;
45792;SDS011;31495;42.740;22.908;2023-04-16T01:49:33;6.47;;;2.03;;
45792;SDS011;31495;42.740;22.908;2023-04-16T01:50:33;5.75;;;1.95;;
45792;SDS011;31495;42.740;22.908;2023-04-16T01:51:33;6.63;;;2.08;;
45792;SDS011;31495;42.740;22.908;2023-04-16T01:52:32;8.48;;;1.80;;
45792;SDS011;31495;42.740;22.908;2023-04-16T01:53:32;5.88;;;1.85;;
45792;SDS011;31495;42.740;22.908;2023-04-16T01:54:32;5.95;;;2.13;;
45792;SDS011;31495;42.740;22.908;2023-04-16T01:55:32;12.30;;;2.50;;
45792;SDS011;31495;42.740;22.908;2023-04-16T01:56:32;7.80;;;2.75;;
45792;SDS011;31495;42.740;22.908;2023-04-16T01:57:31;9.05;;;2.83;;
45792;SDS011;31495;42.740;22.908;2023-04-16T01:58:31;10.38;;;4.30;;
45792;SDS011;31495;42.740;22.908;2023-04-16T01:59:31;23.15;;;9.52;;
45792;SDS011;31495;42.740;22.908;2023-04-16T02:00:30;24.27;;;8.95;;
45792;SDS011;31495;42.740;22.908;2023-04-16T02:01:30;16.48;;;6.68;;
45792;SDS011;31495;42.740;22.908;2023-04-16T02:02:29;11.73;;;5.15;;
45792;SDS011;31495;42.740;22.908;2023-04-16T02:03:30;14.60;;;4.40;;
45792;SDS011;31495;42.740;22.908;2023-04-16T02:04:29;8.88;;;2.80;;
45792;SDS011;31495;42.740;22.908;2023-04-16T02:05:30;13.65;;;3.25;;
45792;SDS011;31495;42.740;22.908;2023-04-16T02:06:29;6.43;;;2.35;;
45792;SDS011;31495;42.740;22.908;2023-04-16T02:07:29;6.35;;;2.08;;
45792;SDS011;31495;42.740;22.908;2023-04-16T02:08:29;7.03;;;1.73;;
45792;SDS011;31495;42.740;22.908;2023-04-16T02:09:29;5.65;;;1.30;;
45792;SDS011;31495;42.740;22.908;2023-04-16T02:10:29;4.00;;;1.23;;
45792;SDS011;31495;42.740;22.908;2023-04-16T02:11:28;5.80;;;1.10;;
45792;SDS011;31495;42.740;22.908;2023-04-16T02:12:27;6.78;;;1.23;;
45792;SDS011;31495;42.740;22.908;2023-04-16T02:13:27;3.58;;;1.10;;
45792;SDS011;31495;42.740;22.908;2023-04-16T02:14:27;6.22;;;1.20;;
45792;SDS011;31495;42.740;22.908;2023-04-16T02:15:26;3.50;;;1.02;;
45792;SDS011;31495;42.740;22.908;2023-04-16T02:16:25;2.90;;;1.15;;
45792;SDS011;31495;42.740;22.908;2023-04-16T02:17:25;3.63;;;1.05;;
45792;SDS011;31495;42.740;22.908;2023-04-16T02:18:24;3.10;;;1.13;;
45792;SDS011;31495;42.740;22.908;2023-04-16T02:19:24;8.23;;;1.73;;
45792;SDS011;31495;42.740;22.908;2023-04-16T02:20:24;9.98;;;2.63;;
45792;SDS011;31495;42.740;22.908;2023-04-16T02:21:23;5.30;;;1.50;;
45792;SDS011;31495;42.740;22.908;2023-04-16T02:22:22;6.10;;;2.10;;
45792;SDS011;31495;42.740;22.908;2023-04-16T02:23:22;9.02;;;2.25;;
45792;SDS011;31495;42.740;22.908;2023-04-16T02:24:21;5.32;;;1.65;;
45792;SDS011;31495;42.740;22.908;2023-04-16T02:25:21;8.63;;;1.70;;
45792;SDS011;31495;42.740;22.908;2023-04-16T02:26:22;8.95;;;1.67;;
45792;SDS011;31495;42.740;22.908;2023-04-16T02:27:21;6.32;;;2.33;;
45792;SDS011;31495;42.740;22.908;2023-04-16T02:28:20;7.18;;;3.30;;
45792;SDS011;31495;42.740;22.908;2023-04-16T02:29:20;12.75;;;4.20;;
45792;SDS011;31495;42.740;22.908;2023-04-16T02:30:20;14.38;;;4.35;;
45792;SDS011;31495;42.740;22.908;2023-04-16T02:31:20;10.13;;;2.95;;
45792;SDS011;31495;42.740;22.908;2023-04-16T02:32:20;9.68;;;3.78;;
45792;SDS011;31495;42.740;22.908;2023-04-16T02:33:20;9.30;;;3.30;;
45792;SDS011;31495;42.740;22.908;2023-04-16T02:34:20;10.18;;;2.88;;
45792;SDS011;31495;42.740;22.908;2023-04-16T02:35:20;8.15;;;4.03;;
45792;SDS011;31495;42.740;22.908;2023-04-16T02:36:19;13.68;;;4.50;;
45792;SDS011;31495;42.740;22.908;2023-04-16T02:37:19;11.93;;;3.78;;
45792;SDS011;31495;42.740;22.908;2023-04-16T02:38:18;12.02;;;3.67;;
45792;SDS011;31495;42.740;22.908;2023-04-16T02:39:18;12.30;;;2.58;;
45792;SDS011;31495;42.740;22.908;2023-04-16T02:40:18;11.75;;;3.22;;
45792;SDS011;31495;42.740;22.908;2023-04-16T02:41:18;9.27;;;2.33;;
45792;SDS011;31495;42.740;22.908;2023-04-16T02:42:17;9.88;;;3.15;;
45792;SDS011;31495;42.740;22.908;2023-04-16T02:43:17;8.82;;;2.67;;
45792;SDS011;31495;42.740;22.908;2023-04-16T02:44:17;11.35;;;3.38;;
45792;SDS011;31495;42.740;22.908;2023-04-16T02:45:16;11.88;;;3.58;;
45792;SDS011;31495;42.740;22.908;2023-04-16T02:46:15;8.43;;;3.38;;
45792;SDS011;31495;42.740;22.908;2023-04-16T02:47:15;13.40;;;3.17;;
45792;SDS011;31495;42.740;22.908;2023-04-16T02:48:14;7.35;;;2.53;;
45792;SDS011;31495;42.740;22.908;2023-04-16T02:49:14;8.13;;;2.58;;
45792;SDS011;31495;42.740;22.908;2023-04-16T02:50:13;6.90;;;2.78;;
45792;SDS011;31495;42.740;22.908;2023-04-16T02:51:13;6.53;;;2.42;;
45792;SDS011;31495;42.740;22.908;2023-04-16T02:52:13;9.15;;;2.90;;
45792;SDS011;31495;42.740;22.908;2023-04-16T02:53:12;4.15;;;2.17;;
45792;SDS011;31495;42.740;22.908;2023-04-16T02:54:11;6.25;;;2.60;;
45792;SDS011;31495;42.740;22.908;2023-04-16T02:55:11;6.18;;;2.55;;
45792;SDS011;31495;42.740;22.908;2023-04-16T02:56:10;7.28;;;2.40;;
45792;SDS011;31495;42.740;22.908;2023-04-16T02:57:10;6.90;;;2.15;;
45792;SDS011;31495;42.740;22.908;2023-04-16T02:58:10;5.22;;;2.42;;
45792;SDS011;31495;42.740;22.908;2023-04-16T02:59:09;7.93;;;2.22;;
45792;SDS011;31495;42.740;22.908;2023-04-16T03:00:09;4.57;;;1.58;;
45792;SDS011;31495;42.740;22.908;2023-04-16T03:01:08;4.25;;;1.65;;
45792;SDS011;31495;42.740;22.908;2023-04-16T03:02:08;5.95;;;2.10;;
45792;SDS011;31495;42.740;22.908;2023-04-16T03:03:07;5.43;;;1.70;;
45792;SDS011;31495;42.740;22.908;2023-04-16T03:04:07;5.55;;;1.80;;
45792;SDS011;31495;42.740;22.908;2023-04-16T03:05:06;11.88;;;1.80;;
45792;SDS011;31495;42.740;22.908;2023-04-16T03:06:06;7.93;;;1.75;;
45792;SDS011;31495;42.740;22.908;2023-04-16T03:07:05;6.93;;;2.45;;
45792;SDS011;31495;42.740;22.908;2023-04-16T03:08:07;5.50;;;2.00;;
45792;SDS011;31495;42.740;22.908;2023-04-16T03:09:06;6.05;;;2.85;;
45792;SDS011;31495;42.740;22.908;2023-04-16T03:10:06;4.78;;;2.33;;
45792;SDS011;31495;42.740;22.908;2023-04-16T03:11:06;8.40;;;3.58;;
45792;SDS011;31495;42.740;22.908;2023-04-16T03:12:05;9.35;;;2.25;;
45792;SDS011;31495;42.740;22.908;2023-04-16T03:13:04;5.13;;;2.33;;
45792;SDS011;31495;42.740;22.908;2023-04-16T03:14:04;16.42;;;2.50;;
45792;SDS011;31495;42.740;22.908;2023-04-16T03:15:04;6.22;;;1.60;;
45792;SDS011;31495;42.740;22.908;2023-04-16T03:16:03;7.30;;;1.50;;
45792;SDS011;31495;42.740;22.908;2023-04-16T03:17:03;4.07;;;1.98;;
45792;SDS011;31495;42.740;22.908;2023-04-16T03:18:03;3.97;;;1.95;;
45792;SDS011;31495;42.740;22.908;2023-04-16T03:19:02;5.60;;;2.30;;
45792;SDS011;31495;42.740;22.908;2023-04-16T03:20:02;6.22;;;1.52;;
45792;SDS011;31495;42.740;22.908;2023-04-16T03:21:03;4.80;;;1.77;;
45792;SDS011;31495;42.740;22.908;2023-04-16T03:22:03;4.68;;;1.40;;
45792;SDS011;31495;42.740;22.908;2023-04-16T03:23:02;2.78;;;0.98;;
45792;SDS011;31495;42.740;22.908;2023-04-16T03:24:02;4.95;;;1.30;;
45792;SDS011;31495;42.740;22.908;2023-04-16T03:25:01;7.72;;;1.38;;
45792;SDS011;31495;42.740;22.908;2023-04-16T03:26:01;3.35;;;1.10;;
45792;SDS011;31495;42.740;22.908;2023-04-16T03:27:01;4.90;;;1.45;;
45792;SDS011;31495;42.740;22.908;2023-04-16T03:28:00;4.63;;;1.30;;
45792;SDS011;31495;42.740;22.908;2023-04-16T03:29:01;4.18;;;1.00;;
45792;SDS011;31495;42.740;22.908;2023-04-16T03:30:01;4.28;;;1.27;;
45792;SDS011;31495;42.740;22.908;2023-04-16T03:31:01;7.60;;;1.50;;
45792;SDS011;31495;42.740;22.908;2023-04-16T03:32:00;3.95;;;1.52;;
45792;SDS011;31495;42.740;22.908;2023-04-16T03:32:59;7.10;;;1.67;;
45792;SDS011;31495;42.740;22.908;2023-04-16T03:33:59;5.40;;;1.10;;
45792;SDS011;31495;42.740;22.908;2023-04-16T03:34:59;3.63;;;1.27;;
45792;SDS011;31495;42.740;22.908;2023-04-16T03:35:59;2.50;;;1.08;;
45792;SDS011;31495;42.740;22.908;2023-04-16T03:36:58;3.80;;;0.90;;
45792;SDS011;31495;42.740;22.908;2023-04-16T03:37:58;4.70;;;1.42;;
45792;SDS011;31495;42.740;22.908;2023-04-16T03:38:57;4.53;;;1.40;;
45792;SDS011;31495;42.740;22.908;2023-04-16T03:39:57;5.10;;;1.33;;
45792;SDS011;31495;42.740;22.908;2023-04-16T03:40:56;2.97;;;1.05;;
45792;SDS011;31495;42.740;22.908;2023-04-16T03:41:55;5.15;;;1.20;;
45792;SDS011;31495;42.740;22.908;2023-04-16T03:42:55;4.22;;;1.20;;
45792;SDS011;31495;42.740;22.908;2023-04-16T03:43:54;7.65;;;1.20;;
45792;SDS011;31495;42.740;22.908;2023-04-16T03:44:54;3.72;;;1.13;;
45792;SDS011;31495;42.740;22.908;2023-04-16T03:45:53;2.75;;;1.25;;
45792;SDS011;31495;42.740;22.908;2023-04-16T03:46:53;4.60;;;1.38;;
45792;SDS011;31495;42.740;22.908;2023-04-16T03:47:52;7.63;;;1.65;;
45792;SDS011;31495;42.740;22.908;2023-04-16T03:48:52;10.02;;;3.28;;
45792;SDS011;31495;42.740;22.908;2023-04-16T03:49:51;6.50;;;3.08;;
45792;SDS011;31495;42.740;22.908;2023-04-16T03:50:51;9.13;;;3.20;;
45792;SDS011;31495;42.740;22.908;2023-04-16T03:51:50;8.65;;;3.10;;
45792;SDS011;31495;42.740;22.908;2023-04-16T03:52:49;11.10;;;3.65;;
45792;SDS011;31495;42.740;22.908;2023-04-16T03:53:49;12.77;;;3.70;;
45792;SDS011;31495;42.740;22.908;2023-04-16T03:54:49;11.70;;;4.13;;
45792;SDS011;31495;42.740;22.908;2023-04-16T03:55:49;5.57;;;2.00;;
45792;SDS011;31495;42.740;22.908;2023-04-16T03:56:49;8.73;;;2.60;;
45792;SDS011;31495;42.740;22.908;2023-04-16T03:57:50;10.82;;;3.03;;
45792;SDS011;31495;42.740;22.908;2023-04-16T03:58:50;7.47;;;1.98;;
45792;SDS011;31495;42.740;22.908;2023-04-16T03:59:49;6.78;;;1.95;;
45792;SDS011;31495;42.740;22.908;2023-04-16T04:00:48;8.20;;;2.42;;
45792;SDS011;31495;42.740;22.908;2023-04-16T04:01:50;8.25;;;2.90;;
45792;SDS011;31495;42.740;22.908;2023-04-16T04:02:50;7.80;;;2.28;;
45792;SDS011;31495;42.740;22.908;2023-04-16T04:03:49;9.43;;;2.38;;
45792;SDS011;31495;42.740;22.908;2023-04-16T04:04:49;7.20;;;1.77;;
45792;SDS011;31495;42.740;22.908;2023-04-16T04:05:48;8.25;;;1.83;;
45792;SDS011;31495;42.740;22.908;2023-04-16T04:06:47;6.50;;;1.63;;
45792;SDS011;31495;42.740;22.908;2023-04-16T04:07:47;7.53;;;2.00;;
45792;SDS011;31495;42.740;22.908;2023-04-16T04:08:46;8.05;;;2.33;;
45792;SDS011;31495;42.740;22.908;2023-04-16T04:09:46;12.63;;;3.42;;
45792;SDS011;31495;42.740;22.908;2023-04-16T04:10:45;6.75;;;2.75;;
45792;SDS011;31495;42.740;22.908;2023-04-16T04:11:45;11.82;;;3.33;;
45792;SDS011;31495;42.740;22.908;2023-04-16T04:12:44;10.70;;;3.38;;
45792;SDS011;31495;42.740;22.908;2023-04-16T04:13:44;9.68;;;2.53;;
45792;SDS011;31495;42.740;22.908;2023-04-16T04:14:44;7.15;;;3.53;;
45792;SDS011;31495;42.740;22.908;2023-04-16T04:15:43;9.18;;;2.88;;
45792;SDS011;31495;42.740;22.908;2023-04-16T04:16:43;12.45;;;2.90;;
45792;SDS011;31495;42.740;22.908;2023-04-16T04:17:42;6.93;;;3.17;;
45792;SDS011;31495;42.740;22.908;2023-04-16T04:18:42;8.63;;;3.17;;
45792;SDS011;31495;42.740;22.908;2023-04-16T04:19:41;9.02;;;3.97;;
45792;SDS011;31495;42.740;22.908;2023-04-16T04:20:41;14.43;;;6.38;;
45792;SDS011;31495;42.740;22.908;2023-04-16T04:21:40;15.90;;;7.47;;
45792;SDS011;31495;42.740;22.908;2023-04-16T04:22:39;29.75;;;13.35;;
45792;SDS011;31495;42.740;22.908;2023-04-16T04:23:39;38.80;;;20.13;;
45792;SDS011;31495;42.740;22.908;2023-04-16T04:24:40;36.28;;;16.55;;
45792;SDS011;31495;42.740;22.908;2023-04-16T04:25:39;36.40;;;21.17;;
45792;SDS011;31495;42.740;22.908;2023-04-16T04:26:39;36.90;;;18.35;;
45792;SDS011;31495;42.740;22.908;2023-04-16T04:27:38;38.70;;;19.30;;
45792;SDS011;31495;42.740;22.908;2023-04-16T04:28:38;28.65;;;15.55;;
45792;SDS011;31495;42.740;22.908;2023-04-16T04:29:37;35.25;;;18.27;;
45792;SDS011;31495;42.740;22.908;2023-04-16T04:30:37;30.95;;;15.35;;
45792;SDS011;31495;42.740;22.908;2023-04-16T04:31:36;28.42;;;13.70;;
45792;SDS011;31495;42.740;22.908;2023-04-16T04:32:36;33.47;;;14.55;;
45792;SDS011;31495;42.740;22.908;2023-04-16T04:33:35;23.67;;;13.63;;
45792;SDS011;31495;42.740;22.908;2023-04-16T04:34:35;22.42;;;11.68;;
45792;SDS011;31495;42.740;22.908;2023-04-16T04:35:34;18.13;;;9.70;;
45792;SDS011;31495;42.740;22.908;2023-04-16T04:36:34;20.33;;;9.85;;
45792;SDS011;31495;42.740;22.908;2023-04-16T04:37:33;18.90;;;10.13;;
45792;SDS011;31495;42.740;22.908;2023-04-16T04:38:32;22.88;;;9.48;;
45792;SDS011;31495;42.740;22.908;2023-04-16T04:39:32;18.75;;;9.60;;
45792;SDS011;31495;42.740;22.908;2023-04-16T04:40:31;17.63;;;8.27;;
45792;SDS011;31495;42.740;22.908;2023-04-16T04:41:30;18.52;;;6.85;;
45792;SDS011;31495;42.740;22.908;2023-04-16T04:42:30;12.90;;;7.20;;
45792;SDS011;31495;42.740;22.908;2023-04-16T04:43:29;17.33;;;7.20;;
45792;SDS011;31495;42.740;22.908;2023-04-16T04:44:29;15.45;;;7.05;;
45792;SDS011;31495;42.740;22.908;2023-04-16T04:45:29;14.57;;;6.93;;
45792;SDS011;31495;42.740;22.908;2023-04-16T04:46:29;14.10;;;6.97;;
45792;SDS011;31495;42.740;22.908;2023-04-16T04:47:28;12.07;;;6.68;;
45792;SDS011;31495;42.740;22.908;2023-04-16T04:48:27;16.67;;;7.88;;
45792;SDS011;31495;42.740;22.908;2023-04-16T04:49:27;17.88;;;8.15;;
45792;SDS011;31495;42.740;22.908;2023-04-16T04:50:26;13.02;;;6.88;;
45792;SDS011;31495;42.740;22.908;2023-04-16T04:51:26;13.43;;;7.95;;
45792;SDS011;31495;42.740;22.908;2023-04-16T04:52:26;15.10;;;7.97;;
45792;SDS011;31495;42.740;22.908;2023-04-16T04:53:25;13.98;;;8.45;;
45792;SDS011;31495;42.740;22.908;2023-04-16T04:54:24;16.38;;;8.23;;
45792;SDS011;31495;42.740;22.908;2023-04-16T04:55:24;19.17;;;8.52;;
45792;SDS011;31495;42.740;22.908;2023-04-16T04:56:23;20.50;;;9.00;;
45792;SDS011;31495;42.740;22.908;2023-04-16T04:57:23;21.42;;;8.15;;
45792;SDS011;31495;42.740;22.908;2023-04-16T04:58:23;19.23;;;8.90;;
45792;SDS011;31495;42.740;22.908;2023-04-16T04:59:22;11.95;;;7.57;;
45792;SDS011;31495;42.740;22.908;2023-04-16T05:00:23;15.93;;;8.77;;
45792;SDS011;31495;42.740;22.908;2023-04-16T05:01:23;19.92;;;8.50;;
45792;SDS011;31495;42.740;22.908;2023-04-16T05:02:22;14.52;;;8.48;;
45792;SDS011;31495;42.740;22.908;2023-04-16T05:03:21;20.45;;;9.52;;
45792;SDS011;31495;42.740;22.908;2023-04-16T05:04:21;17.55;;;8.98;;
45792;SDS011;31495;42.740;22.908;2023-04-16T05:05:20;17.92;;;10.18;;
45792;SDS011;31495;42.740;22.908;2023-04-16T05:06:20;23.55;;;10.50;;
45792;SDS011;31495;42.740;22.908;2023-04-16T05:07:20;16.88;;;10.27;;
45792;SDS011;31495;42.740;22.908;2023-04-16T05:08:20;19.15;;;11.32;;
45792;SDS011;31495;42.740;22.908;2023-04-16T05:09:19;29.60;;;14.00;;
45792;SDS011;31495;42.740;22.908;2023-04-16T05:10:18;23.88;;;13.38;;
45792;SDS011;31495;42.740;22.908;2023-04-16T05:11:18;24.85;;;11.77;;
45792;SDS011;31495;42.740;22.908;2023-04-16T05:12:17;20.60;;;11.05;;
45792;SDS011;31495;42.740;22.908;2023-04-16T05:13:17;28.27;;;11.35;;
45792;SDS011;31495;42.740;22.908;2023-04-16T05:14:16;23.85;;;13.90;;
45792;SDS011;31495;42.740;22.908;2023-04-16T05:15:15;30.63;;;15.52;;
45792;SDS011;31495;42.740;22.908;2023-04-16T05:16:15;32.70;;;16.50;;
45792;SDS011;31495;42.740;22.908;2023-04-16T05:17:15;36.75;;;18.38;;
45792;SDS011;31495;42.740;22.908;2023-04-16T05:18:14;43.83;;;21.67;;
45792;SDS011;31495;42.740;22.908;2023-04-16T05:19:13;38.65;;;18.75;;
45792;SDS011;31495;42.740;22.908;2023-04-16T05:20:13;40.22;;;18.63;;
45792;SDS011;31495;42.740;22.908;2023-04-16T05:21:12;38.05;;;21.00;;
45792;SDS011;31495;42.740;22.908;2023-04-16T05:22:12;40.22;;;20.67;;
45792;SDS011;31495;42.740;22.908;2023-04-16T05:23:11;39.67;;;21.48;;
45792;SDS011;31495;42.740;22.908;2023-04-16T05:24:11;42.22;;;21.15;;
45792;SDS011;31495;42.740;22.908;2023-04-16T05:25:10;31.23;;;15.20;;
45792;SDS011;31495;42.740;22.908;2023-04-16T05:26:10;24.67;;;13.60;;
45792;SDS011;31495;42.740;22.908;2023-04-16T05:27:09;25.08;;;14.25;;
45792;SDS011;31495;42.740;22.908;2023-04-16T05:28:09;28.00;;;16.25;;
45792;SDS011;31495;42.740;22.908;2023-04-16T05:29:09;29.65;;;14.20;;
45792;SDS011;31495;42.740;22.908;2023-04-16T05:30:08;34.92;;;16.90;;
45792;SDS011;31495;42.740;22.908;2023-04-16T05:31:08;34.95;;;15.43;;
45792;SDS011;31495;42.740;22.908;2023-04-16T05:32:08;34.88;;;14.50;;
45792;SDS011;31495;42.740;22.908;2023-04-16T05:33:07;35.42;;;17.30;;
45792;SDS011;31495;42.740;22.908;2023-04-16T05:34:07;41.85;;;20.23;;
45792;SDS011;31495;42.740;22.908;2023-04-16T05:35:06;41.50;;;20.10;;
45792;SDS011;31495;42.740;22.908;2023-04-16T05:37:07;27.55;;;14.75;;
45792;SDS011;31495;42.740;22.908;2023-04-16T05:38:07;34.40;;;16.33;;
45792;SDS011;31495;42.740;22.908;2023-04-16T05:39:06;31.75;;;16.00;;
45792;SDS011;31495;42.740;22.908;2023-04-16T05:40:06;33.80;;;17.33;;
45792;SDS011;31495;42.740;22.908;2023-04-16T05:41:06;32.17;;;16.55;;
45792;SDS011;31495;42.740;22.908;2023-04-16T05:42:05;38.25;;;16.48;;
45792;SDS011;31495;42.740;22.908;2023-04-16T05:43:05;30.55;;;14.82;;
45792;SDS011;31495;42.740;22.908;2023-04-16T05:44:04;26.88;;;14.82;;
45792;SDS011;31495;42.740;22.908;2023-04-16T05:45:04;32.17;;;14.63;;
45792;SDS011;31495;42.740;22.908;2023-04-16T05:46:04;35.50;;;13.20;;
45792;SDS011;31495;42.740;22.908;2023-04-16T05:47:04;28.17;;;15.95;;
45792;SDS011;31495;42.740;22.908;2023-04-16T05:48:08;26.95;;;15.80;;
45792;SDS011;31495;42.740;22.908;2023-04-16T05:49:09;37.67;;;17.73;;
45792;SDS011;31495;42.740;22.908;2023-04-16T05:50:09;34.05;;;17.88;;
45792;SDS011;31495;42.740;22.908;2023-04-16T05:51:09;28.95;;;14.60;;
45792;SDS011;31495;42.740;22.908;2023-04-16T05:52:09;38.08;;;12.70;;